createdAt,value
2017-09-26T00:01:20.997Z,41.80
2017-09-26T00:03:49.318Z,43.98
2017-09-26T00:06:21.607Z,37.54
2017-09-26T00:08:51.027Z,51.68
2017-09-26T00:11:19.335Z,45.10
2017-09-26T00:13:47.641Z,43.70
2017-09-26T00:16:15.986Z,39.44
2017-09-26T00:18:45.689Z,40.30
2017-09-26T00:21:15.582Z,43.26
2017-09-26T00:23:44.920Z,44.98
2017-09-26T00:26:13.285Z,47.54
2017-09-26T00:28:41.635Z,52.80
2017-09-26T00:31:09.982Z,44.20
2017-09-26T00:33:38.302Z,49.74
2017-09-26T00:36:09.231Z,51.14
2017-09-26T00:38:37.544Z,47.50
2017-09-26T00:41:05.863Z,48.68
2017-09-26T00:43:34.215Z,40.66
2017-09-26T00:46:02.518Z,45.66
2017-09-26T00:48:30.861Z,45.92
2017-09-26T00:50:59.170Z,40.32
2017-09-26T00:53:27.490Z,41.58
2017-09-26T00:55:55.834Z,47.34
2017-09-26T00:58:24.138Z,41.58
2017-09-26T01:00:52.451Z,44.48
2017-09-26T01:03:21.569Z,46.62
2017-09-26T01:05:52.298Z,43.62
2017-09-26T01:08:21.362Z,41.74
2017-09-26T01:10:49.671Z,43.62
2017-09-26T01:13:18.005Z,39.00
2017-09-26T01:15:46.319Z,45.94
2017-09-26T01:18:14.663Z,35.36
2017-09-26T01:20:42.966Z,37.16
2017-09-26T01:23:11.309Z,47.40
2017-09-26T01:25:39.614Z,40.10
2017-09-26T01:28:07.949Z,39.82
2017-09-26T01:30:36.258Z,36.62
2017-09-26T01:33:04.606Z,42.28
2017-09-26T01:35:32.914Z,41.06
2017-09-26T01:38:01.231Z,41.92
2017-09-26T01:40:29.573Z,43.30
2017-09-26T01:42:57.922Z,43.14
2017-09-26T01:45:26.233Z,46.14
2017-09-26T01:47:54.543Z,43.70
2017-09-26T01:50:22.878Z,37.68
2017-09-26T01:52:51.210Z,41.42
2017-09-26T01:55:19.526Z,44.28
2017-09-26T01:57:48.785Z,44.32
2017-09-26T02:00:17.120Z,37.70
2017-09-26T02:02:46.626Z,39.18
2017-09-26T02:05:16.433Z,35.60
2017-09-26T02:07:44.787Z,36.96
2017-09-26T02:10:13.131Z,41.48
2017-09-26T02:12:41.447Z,39.20
2017-09-26T02:15:09.802Z,51.50
2017-09-26T02:17:38.106Z,35.92
2017-09-26T02:20:06.430Z,36.78
2017-09-26T02:22:34.801Z,36.92
2017-09-26T02:25:03.119Z,41.58
2017-09-26T02:27:31.469Z,38.60
2017-09-26T02:29:59.787Z,34.48
2017-09-26T02:32:28.166Z,45.46
2017-09-26T02:34:56.486Z,38.14
2017-09-26T02:37:24.802Z,39.76
2017-09-26T02:39:53.155Z,41.64
2017-09-26T02:42:22.654Z,40.86
2017-09-26T02:44:51.922Z,37.30
2017-09-26T02:47:20.738Z,36.92
2017-09-26T02:49:49.081Z,37.46
2017-09-26T02:52:17.397Z,34.36
2017-09-26T02:54:45.780Z,36.14
2017-09-26T02:57:15.168Z,35.62
2017-09-26T02:59:44.302Z,39.78
2017-09-26T03:02:12.652Z,35.28
2017-09-26T03:04:40.967Z,35.42
2017-09-26T03:07:08.573Z,41.52
2017-09-26T03:09:36.917Z,37.16
2017-09-26T03:12:05.270Z,33.80
2017-09-26T03:14:33.633Z,38.50
2017-09-26T03:17:01.954Z,38.90
2017-09-26T03:19:30.339Z,35.84
2017-09-26T03:21:58.650Z,42.96
2017-09-26T03:24:26.962Z,35.08
2017-09-26T03:26:55.294Z,41.36
2017-09-26T03:29:23.608Z,40.48
2017-09-26T03:31:51.187Z,40.50
2017-09-26T03:34:19.498Z,38.14
2017-09-26T03:36:47.846Z,43.90
2017-09-26T03:39:16.177Z,50.48
2017-09-26T03:41:45.533Z,49.90
2017-09-26T03:44:14.898Z,47.72
2017-09-26T03:46:43.234Z,49.42
2017-09-26T03:49:11.582Z,48.88
2017-09-26T03:51:39.922Z,44.92
2017-09-26T03:54:08.230Z,44.00
2017-09-26T03:56:36.573Z,44.24
2017-09-26T03:59:04.888Z,48.76
2017-09-26T04:01:33.255Z,48.86
2017-09-26T04:04:01.627Z,43.64
2017-09-26T04:06:29.937Z,44.50
2017-09-26T04:08:58.668Z,48.16
2017-09-26T04:11:27.007Z,44.68
2017-09-26T04:13:55.318Z,51.94
2017-09-26T04:16:23.681Z,48.30
2017-09-26T04:18:53.018Z,48.12
2017-09-26T04:21:22.582Z,46.90
2017-09-26T04:23:51.782Z,47.28
2017-09-26T04:26:20.719Z,49.34
2017-09-26T04:28:49.059Z,44.42
2017-09-26T04:31:17.371Z,46.22
2017-09-26T04:33:48.835Z,45.76
2017-09-26T04:36:17.134Z,47.36
2017-09-26T04:38:46.450Z,45.84
2017-09-26T04:41:14.788Z,51.36
2017-09-26T04:43:43.100Z,41.76
2017-09-26T04:46:11.439Z,47.50
2017-09-26T04:48:39.790Z,39.82
2017-09-26T04:51:08.133Z,41.90
2017-09-26T04:53:36.488Z,44.68
2017-09-26T04:56:04.858Z,36.46
2017-09-26T04:58:32.406Z,47.28
2017-09-26T05:01:00.723Z,44.68
2017-09-26T05:03:29.024Z,39.50
2017-09-26T05:05:57.284Z,43.64
2017-09-26T05:08:25.593Z,41.68
2017-09-26T05:10:53.859Z,47.64
2017-09-26T05:13:22.230Z,44.88
2017-09-26T05:15:51.523Z,41.44
2017-09-26T05:18:19.783Z,44.50
2017-09-26T05:20:48.078Z,42.80
2017-09-26T05:23:16.363Z,49.12
2017-09-26T05:25:44.698Z,53.16
2017-09-26T05:28:12.963Z,44.54
2017-09-26T05:30:41.221Z,47.62
2017-09-26T05:33:09.523Z,42.84
2017-09-26T05:35:37.788Z,40.44
2017-09-26T05:38:06.050Z,49.26
2017-09-26T05:40:34.355Z,43.18
2017-09-26T05:43:01.875Z,49.14
2017-09-26T05:45:30.135Z,44.76
2017-09-26T05:47:58.437Z,45.18
2017-09-26T05:50:26.727Z,39.40
2017-09-26T05:52:55.034Z,37.18
2017-09-26T05:55:23.324Z,42.46
2017-09-26T05:57:52.877Z,45.94
2017-09-26T06:00:24.729Z,49.00
2017-09-26T06:02:53.019Z,46.28
2017-09-26T06:05:21.311Z,46.10
2017-09-26T06:07:49.572Z,51.50
2017-09-26T06:10:17.850Z,44.48
2017-09-26T06:12:46.140Z,46.52
2017-09-26T06:15:15.407Z,45.62
2017-09-26T06:17:44.466Z,51.90
2017-09-26T06:20:12.724Z,44.64
2017-09-26T06:22:41.015Z,44.88
2017-09-26T06:25:09.306Z,50.66
2017-09-26T06:27:37.586Z,52.74
2017-09-26T06:30:05.887Z,52.26
2017-09-26T06:32:34.139Z,53.44
2017-09-26T06:35:02.406Z,50.66
2017-09-26T06:37:30.694Z,57.94
2017-09-26T06:39:58.943Z,49.64
2017-09-26T06:42:27.230Z,48.36
2017-09-26T06:44:55.488Z,57.04
2017-09-26T06:47:23.802Z,57.36
2017-09-26T06:49:54.083Z,51.14
2017-09-26T06:52:22.802Z,53.38
2017-09-26T06:54:51.082Z,62.96
2017-09-26T06:57:19.375Z,59.72
2017-09-26T06:59:52.122Z,57.88
2017-09-26T07:02:21.400Z,76.94
2017-09-26T07:04:49.656Z,53.66
2017-09-26T07:07:19.879Z,59.64
2017-09-26T07:09:48.175Z,68.66
2017-09-26T07:12:16.432Z,68.52
2017-09-26T07:14:44.688Z,70.70
2017-09-26T07:17:12.981Z,70.06
2017-09-26T07:19:41.236Z,70.94
2017-09-26T07:22:09.507Z,82.76
2017-09-26T07:24:37.042Z,80.58
2017-09-26T07:27:05.291Z,79.78
2017-09-26T07:29:33.551Z,87.92
2017-09-26T07:32:01.855Z,89.64
2017-09-26T07:34:30.142Z,106.94
2017-09-26T07:36:58.400Z,110.20
2017-09-26T07:39:26.695Z,114.48
2017-09-26T07:41:54.959Z,106.18
2017-09-26T07:44:23.214Z,102.62
2017-09-26T07:46:52.490Z,106.56
2017-09-26T07:49:21.542Z,107.92
2017-09-26T07:51:49.812Z,112.14
2017-09-26T07:54:18.119Z,113.22
2017-09-26T07:56:46.382Z,129.84
2017-09-26T07:59:15.023Z,118.56
2017-09-26T08:01:43.334Z,114.88
2017-09-26T08:04:12.826Z,117.30
2017-09-26T08:06:41.331Z,136.82
2017-09-26T08:09:09.855Z,116.28
2017-09-26T08:11:39.141Z,122.18
2017-09-26T08:14:07.447Z,127.42
2017-09-26T08:16:34.947Z,122.10
2017-09-26T08:19:03.234Z,115.52
2017-09-26T08:21:31.538Z,103.94
2017-09-26T08:23:59.812Z,111.26
2017-09-26T08:26:28.071Z,114.18
2017-09-26T08:29:00.177Z,93.82
2017-09-26T08:31:28.459Z,112.32
2017-09-26T08:33:56.781Z,129.76
2017-09-26T08:36:25.086Z,121.00
2017-09-26T08:38:53.352Z,111.06
2017-09-26T08:41:22.723Z,119.60
2017-09-26T08:43:51.943Z,144.64
2017-09-26T08:46:20.806Z,125.10
2017-09-26T08:48:49.064Z,122.26
2017-09-26T08:51:17.335Z,120.66
2017-09-26T08:53:46.411Z,126.54
2017-09-26T08:56:14.684Z,137.46
2017-09-26T08:58:43.014Z,136.78
2017-09-26T09:01:11.282Z,144.90
2017-09-26T09:03:39.386Z,129.34
2017-09-26T09:06:07.675Z,118.68
2017-09-26T09:08:35.935Z,130.90
2017-09-26T09:11:04.223Z,130.78
2017-09-26T09:13:32.510Z,132.20
2017-09-26T09:16:00.774Z,133.10
2017-09-26T09:18:29.063Z,119.10
2017-09-26T09:20:57.318Z,130.86
2017-09-26T09:23:25.615Z,109.18
2017-09-26T09:25:53.880Z,123.34
2017-09-26T09:28:22.640Z,104.08
2017-09-26T09:30:52.213Z,97.84
2017-09-26T09:33:21.519Z,107.40
2017-09-26T09:35:51.470Z,120.26
2017-09-26T09:38:19.744Z,102.88
2017-09-26T09:40:48.063Z,95.38
2017-09-26T09:43:16.331Z,121.00
2017-09-26T09:45:44.632Z,106.92
2017-09-26T09:48:12.926Z,105.74
2017-09-26T09:50:41.188Z,94.06
2017-09-26T09:53:09.491Z,89.80
2017-09-26T09:55:37.767Z,71.62
2017-09-26T09:58:05.311Z,110.66
2017-09-26T10:00:34.586Z,114.90
2017-09-26T10:03:02.862Z,103.16
2017-09-26T10:05:31.175Z,106.76
2017-09-26T10:07:59.446Z,120.38
2017-09-26T10:10:27.743Z,111.04
2017-09-26T10:12:56.018Z,98.60
2017-09-26T10:15:25.339Z,101.90
2017-09-26T10:17:53.631Z,104.24
2017-09-26T10:20:22.499Z,94.86
2017-09-26T10:22:52.235Z,89.50
2017-09-26T10:25:21.478Z,91.34
2017-09-26T10:27:49.767Z,82.96
2017-09-26T10:30:18.067Z,73.64
2017-09-26T10:32:46.320Z,86.86
2017-09-26T10:35:15.607Z,82.98
2017-09-26T10:37:45.330Z,92.52
2017-09-26T10:40:14.335Z,73.18
2017-09-26T10:42:42.631Z,76.02
2017-09-26T10:45:10.894Z,78.82
2017-09-26T10:47:39.167Z,70.28
2017-09-26T10:50:07.455Z,74.12
2017-09-26T10:52:38.803Z,74.36
2017-09-26T10:55:07.102Z,73.80
2017-09-26T10:57:35.367Z,77.68
2017-09-26T11:00:03.698Z,67.94
2017-09-26T11:02:31.963Z,79.88
2017-09-26T11:05:00.223Z,83.82
2017-09-26T11:07:28.514Z,70.02
2017-09-26T11:09:56.772Z,81.82
2017-09-26T11:12:25.960Z,70.00
2017-09-26T11:14:54.247Z,75.22
2017-09-26T11:17:23.478Z,75.60
2017-09-26T11:19:52.271Z,65.10
2017-09-26T11:22:21.432Z,66.26
2017-09-26T11:24:49.724Z,70.70
2017-09-26T11:27:17.975Z,65.60
2017-09-26T11:29:46.273Z,69.06
2017-09-26T11:32:14.559Z,67.56
2017-09-26T11:34:42.858Z,64.74
2017-09-26T11:37:11.120Z,65.78
2017-09-26T11:39:40.847Z,58.12
2017-09-26T11:42:09.131Z,65.90
2017-09-26T11:44:36.643Z,64.12
2017-09-26T11:47:04.940Z,68.82
2017-09-26T11:49:33.214Z,69.72
2017-09-26T11:52:01.522Z,77.72
2017-09-26T11:54:29.783Z,66.94
2017-09-26T11:56:58.071Z,63.18
2017-09-26T11:59:26.331Z,64.70
2017-09-26T12:01:53.851Z,62.76
2017-09-26T12:04:23.023Z,63.12
2017-09-26T12:06:51.320Z,59.74
2017-09-26T12:09:19.588Z,59.44
2017-09-26T12:11:47.838Z,58.56
2017-09-26T12:14:16.136Z,58.08
2017-09-26T12:16:45.294Z,59.52
2017-09-26T12:19:14.253Z,64.62
2017-09-26T12:21:42.556Z,61.08
2017-09-26T12:24:10.832Z,54.92
2017-09-26T12:26:39.099Z,53.40
2017-09-26T12:29:07.399Z,59.98
2017-09-26T12:31:35.661Z,49.22
2017-09-26T12:34:03.933Z,50.22
2017-09-26T12:36:32.222Z,58.46
2017-09-26T12:39:00.511Z,54.72
2017-09-26T12:41:28.772Z,52.12
2017-09-26T12:43:57.059Z,50.40
2017-09-26T12:46:25.370Z,45.84
2017-09-26T12:48:53.635Z,47.98
2017-09-26T12:51:22.847Z,53.20
2017-09-26T12:53:50.779Z,53.08
2017-09-26T12:56:19.043Z,52.56
2017-09-26T12:58:46.855Z,54.64
2017-09-26T13:01:16.508Z,49.24
2017-09-26T13:03:45.169Z,42.88
2017-09-26T13:06:14.286Z,43.22
2017-09-26T13:08:42.566Z,45.54
2017-09-26T13:11:10.827Z,42.12
2017-09-26T13:13:39.123Z,46.96
2017-09-26T13:16:07.377Z,43.36
2017-09-26T13:18:35.694Z,47.32
2017-09-26T13:21:03.955Z,50.00
2017-09-26T13:23:32.262Z,42.50
2017-09-26T13:26:00.537Z,42.48
2017-09-26T13:28:28.831Z,44.10
2017-09-26T13:30:57.121Z,39.62
2017-09-26T13:33:25.471Z,43.88
2017-09-26T13:35:53.736Z,45.46
2017-09-26T13:38:23.099Z,38.92
2017-09-26T13:40:51.824Z,39.26
2017-09-26T13:43:20.139Z,38.30
2017-09-26T13:45:52.504Z,44.52
2017-09-26T13:48:20.807Z,44.30
2017-09-26T13:50:49.123Z,36.50
2017-09-26T13:53:17.375Z,34.92
2017-09-26T13:55:46.970Z,37.62
2017-09-26T13:58:16.199Z,34.54
2017-09-26T14:00:45.504Z,38.08
2017-09-26T14:03:13.795Z,38.16
2017-09-26T14:05:42.050Z,33.92
2017-09-26T14:08:09.595Z,34.24
2017-09-26T14:10:37.870Z,33.14
2017-09-26T14:13:09.283Z,34.18
2017-09-26T14:15:37.537Z,33.74
2017-09-26T14:18:09.247Z,33.66
2017-09-26T14:20:37.507Z,27.36
2017-09-26T14:23:09.547Z,30.76
2017-09-26T14:25:37.831Z,30.00
2017-09-26T14:28:06.159Z,30.98
2017-09-26T14:30:34.458Z,28.66
2017-09-26T14:33:09.192Z,31.30
2017-09-26T14:35:37.478Z,30.42
2017-09-26T14:38:05.742Z,34.14
2017-09-26T14:40:34.067Z,26.68
2017-09-26T14:43:02.338Z,24.32
2017-09-26T14:45:29.842Z,25.70
2017-09-26T14:47:58.138Z,22.90
2017-09-26T14:50:26.432Z,23.98
2017-09-26T14:52:54.741Z,25.12
2017-09-26T14:55:23.036Z,25.88
2017-09-26T14:57:51.307Z,22.98
2017-09-26T15:00:19.587Z,24.98
2017-09-26T15:02:47.092Z,19.88
2017-09-26T15:05:16.639Z,23.78
2017-09-26T15:07:46.123Z,21.06
2017-09-26T15:10:15.263Z,23.50
2017-09-26T15:12:46.808Z,23.92
2017-09-26T15:15:15.964Z,20.40
2017-09-26T15:17:45.230Z,21.48
2017-09-26T15:20:14.262Z,19.76
2017-09-26T15:22:42.519Z,26.76
2017-09-26T15:25:10.820Z,22.28
2017-09-26T15:27:39.092Z,19.82
2017-09-26T15:30:07.483Z,19.64
2017-09-26T15:32:35.795Z,19.30
2017-09-26T15:35:04.093Z,21.94
2017-09-26T15:37:32.383Z,25.40
2017-09-26T15:40:00.642Z,23.98
2017-09-26T15:42:28.894Z,19.30
2017-09-26T15:44:57.235Z,20.90
2017-09-26T15:47:25.491Z,19.56
2017-09-26T15:49:53.764Z,22.94
2017-09-26T15:52:22.778Z,22.20
2017-09-26T15:54:51.003Z,24.30
2017-09-26T15:57:19.355Z,22.00
2017-09-26T15:59:47.633Z,21.32
2017-09-26T16:02:17.921Z,23.18
2017-09-26T16:04:46.187Z,21.80
2017-09-26T16:07:15.311Z,27.00
2017-09-26T16:09:44.417Z,23.18
2017-09-26T16:12:13.670Z,23.28
2017-09-26T16:14:41.975Z,18.40
2017-09-26T16:17:10.306Z,20.14
2017-09-26T16:19:38.566Z,14.74
2017-09-26T16:22:23.428Z,11.70
2017-09-26T16:24:52.798Z,12.28
2017-09-26T16:27:24.291Z,10.48
2017-09-26T16:29:52.543Z,10.68
2017-09-26T16:32:20.859Z,10.98
2017-09-26T16:34:56.222Z,11.88
2017-09-26T16:37:24.476Z,12.82
2017-09-26T16:39:52.794Z,43.48
2017-09-26T16:42:22.274Z,11.08
2017-09-26T16:44:50.959Z,10.28
2017-09-26T16:47:19.216Z,10.04
2017-09-26T16:49:47.501Z,11.24
2017-09-26T16:52:15.791Z,8.76
2017-09-26T16:54:45.017Z,11.42
2017-09-26T16:57:13.312Z,9.04
2017-09-26T16:59:41.600Z,10.40
2017-09-26T17:02:09.863Z,9.18
2017-09-26T17:04:38.158Z,10.54
2017-09-26T17:07:06.424Z,13.04
2017-09-26T17:09:34.684Z,10.76
2017-09-26T17:12:02.956Z,10.46
2017-09-26T17:14:30.443Z,13.82
2017-09-26T17:16:58.730Z,15.60
2017-09-26T17:19:26.988Z,11.94
2017-09-26T17:21:55.244Z,11.20
2017-09-26T17:24:23.535Z,10.32
2017-09-26T17:26:51.710Z,11.02
2017-09-26T17:29:24.338Z,12.60
2017-09-26T17:31:52.591Z,9.66
2017-09-26T17:34:20.110Z,8.14
2017-09-26T17:36:48.366Z,10.94
2017-09-26T17:39:16.620Z,10.56
2017-09-26T17:41:45.795Z,13.78
2017-09-26T17:44:16.166Z,9.70
2017-09-26T17:46:45.007Z,8.82
2017-09-26T17:49:13.263Z,10.68
2017-09-26T17:51:41.520Z,9.44
2017-09-26T17:54:09.808Z,12.10
2017-09-26T17:56:38.089Z,12.90
2017-09-26T17:59:06.360Z,8.46
2017-09-26T18:01:34.616Z,9.04
2017-09-26T18:04:02.921Z,10.22
2017-09-26T18:06:31.179Z,13.86
2017-09-26T18:09:02.572Z,9.18
2017-09-26T18:11:30.818Z,9.30
2017-09-26T18:14:09.290Z,10.48
2017-09-26T18:16:37.540Z,9.82
2017-09-26T18:19:05.869Z,13.48
2017-09-26T18:21:34.176Z,17.06
2017-09-26T18:24:07.969Z,11.48
2017-09-26T18:26:36.270Z,12.82
2017-09-26T18:29:10.691Z,13.16
2017-09-26T18:31:38.995Z,16.58
2017-09-26T18:34:06.572Z,19.36
2017-09-26T18:36:34.866Z,19.44
2017-09-26T18:39:03.138Z,17.94
2017-09-26T18:41:31.450Z,23.24
2017-09-26T18:43:59.786Z,21.22
2017-09-26T18:46:28.044Z,18.08
2017-09-26T18:48:56.338Z,21.84
2017-09-26T18:51:24.681Z,14.32
2017-09-26T18:53:52.992Z,16.50
2017-09-26T18:56:21.790Z,12.12
2017-09-26T18:58:49.331Z,11.84
2017-09-26T19:01:17.667Z,11.34
2017-09-26T19:03:46.187Z,11.64
2017-09-26T19:06:13.746Z,9.56
2017-09-26T19:08:42.066Z,10.04
2017-09-26T19:11:10.350Z,8.08
2017-09-26T19:13:38.662Z,10.72
2017-09-26T19:16:07.006Z,10.66
2017-09-26T19:18:35.313Z,11.32
2017-09-26T19:21:03.625Z,9.22
2017-09-26T19:23:31.990Z,10.70
2017-09-26T19:26:00.290Z,9.42
2017-09-26T19:28:27.878Z,10.96
2017-09-26T19:30:56.243Z,8.92
2017-09-26T19:33:24.556Z,11.98
2017-09-26T19:35:53.339Z,13.02
2017-09-26T19:38:22.664Z,10.62
2017-09-26T19:40:51.741Z,10.68
2017-09-26T19:43:20.063Z,9.86
2017-09-26T19:45:48.434Z,11.84
2017-09-26T19:48:15.918Z,10.76
2017-09-26T19:50:45.373Z,10.84
2017-09-26T19:53:13.718Z,11.10
2017-09-26T19:55:42.051Z,9.80
2017-09-26T19:58:10.359Z,10.92
2017-09-26T20:00:38.687Z,12.42
2017-09-26T20:03:06.250Z,10.10
2017-09-26T20:05:34.614Z,10.34
2017-09-26T20:08:02.945Z,9.40
2017-09-26T20:10:31.255Z,14.10
2017-09-26T20:12:59.544Z,11.12
2017-09-26T20:15:27.918Z,10.98
2017-09-26T20:17:56.227Z,11.74
2017-09-26T20:20:24.531Z,11.02
2017-09-26T20:22:52.814Z,11.48
2017-09-26T20:25:22.411Z,16.16
2017-09-26T20:27:51.738Z,12.40
2017-09-26T20:30:20.091Z,12.74
2017-09-26T20:32:52.343Z,12.30
2017-09-26T20:35:20.634Z,13.50
2017-09-26T20:37:48.895Z,10.82
2017-09-26T20:40:17.154Z,16.00
2017-09-26T20:42:46.619Z,13.02
2017-09-26T20:45:15.491Z,12.22
2017-09-26T20:47:43.744Z,10.28
2017-09-26T20:50:12.059Z,14.06
2017-09-26T20:52:40.374Z,10.76
2017-09-26T20:55:08.631Z,13.00
2017-09-26T20:57:36.128Z,12.48
2017-09-26T21:00:04.423Z,11.54
2017-09-26T21:02:32.674Z,16.36
2017-09-26T21:05:00.919Z,13.40
2017-09-26T21:07:29.208Z,13.30
2017-09-26T21:09:57.496Z,10.60
2017-09-26T21:12:25.012Z,11.14
2017-09-26T21:14:53.290Z,12.06
2017-09-26T21:17:21.579Z,16.50
2017-09-26T21:19:49.863Z,20.10
2017-09-26T21:22:18.140Z,17.24
2017-09-26T21:24:46.434Z,13.76
2017-09-26T21:27:14.687Z,19.92
2017-09-26T21:29:42.994Z,17.96
2017-09-26T21:32:11.342Z,19.38
2017-09-26T21:34:39.608Z,21.32
2017-09-26T21:37:07.863Z,16.98
2017-09-26T21:39:36.190Z,17.90
2017-09-26T21:42:04.455Z,18.20
2017-09-26T21:44:32.715Z,20.18
2017-09-26T21:47:01.012Z,13.64
2017-09-26T21:49:29.267Z,15.42
2017-09-26T21:51:56.759Z,15.44
2017-09-26T21:54:25.059Z,15.44
2017-09-26T21:56:53.355Z,14.50
2017-09-26T21:59:21.643Z,12.46
2017-09-26T22:01:49.939Z,12.78
2017-09-26T22:04:18.218Z,12.10
2017-09-26T22:06:45.755Z,17.32
2017-09-26T22:09:15.130Z,14.94
2017-09-26T22:11:43.391Z,15.82
2017-09-26T22:14:11.763Z,14.52
2017-09-26T22:16:40.024Z,17.32
2017-09-26T22:19:08.280Z,14.66
2017-09-26T22:21:36.601Z,13.06
2017-09-26T22:24:04.860Z,13.32
2017-09-26T22:26:33.123Z,10.92
2017-09-26T22:29:01.444Z,14.22
2017-09-26T22:31:29.746Z,13.72
2017-09-26T22:33:58.005Z,16.16
2017-09-26T22:36:26.277Z,14.88
2017-09-26T22:38:53.827Z,14.26
2017-09-26T22:41:22.894Z,13.54
2017-09-26T22:43:51.795Z,19.02
2017-09-26T22:46:20.075Z,15.84
2017-09-26T22:48:48.366Z,16.84
2017-09-26T22:51:16.624Z,13.34
2017-09-26T22:53:46.149Z,15.50
2017-09-26T22:56:15.383Z,16.00
2017-09-26T22:58:43.655Z,15.48
2017-09-26T23:01:11.954Z,13.98
2017-09-26T23:03:40.210Z,16.94
2017-09-26T23:06:08.486Z,14.60
2017-09-26T23:08:36.782Z,16.92
2017-09-26T23:11:05.043Z,13.16
2017-09-26T23:13:33.359Z,18.10
2017-09-26T23:16:01.663Z,23.08
2017-09-26T23:18:29.939Z,18.56
2017-09-26T23:20:58.198Z,15.48
2017-09-26T23:23:26.511Z,16.50
2017-09-26T23:25:54.795Z,18.70
2017-09-26T23:28:23.111Z,14.54
2017-09-26T23:30:52.271Z,15.10
2017-09-26T23:33:21.056Z,18.32
2017-09-26T23:35:49.351Z,18.00
2017-09-26T23:38:17.606Z,15.84
2017-09-26T23:40:45.864Z,19.82
2017-09-26T23:43:15.558Z,16.80
2017-09-26T23:45:45.207Z,15.50
2017-09-26T23:48:14.277Z,17.00
2017-09-26T23:50:42.542Z,17.38
2017-09-26T23:53:10.799Z,18.28
2017-09-26T23:55:39.111Z,18.50
2017-09-26T23:58:07.375Z,14.68
